Time;durP1;ratioP1;P1;durP2;ratioP2;P2;SDS_P1;SDS_P2;PMS_P1;PMS_P2;Temp;Humidity;BMP_temperature;BMP_pressure;BME280_temperature;BME280_humidity;BME280_pressure;Samples;Min_cycle;Max_cycle;Signal;HPM_P1;HPM_P2
2022/01/20 00:03:31;;;;;;;10.45;5.43;;;-2.90;99.90;;;;;;5084858;28;20050;-91
2022/01/20 00:27:48;;;;;;;9.68;6.28;;;-2.80;99.90;;;;;;5088753;28;20158;-87
2022/01/20 00:38:23;;;;;;;9.05;4.97;;;-2.90;99.90;;;;;;5083303;28;20112;-86
2022/01/20 00:40:49;;;;;;;8.60;5.40;;;-2.90;99.90;;;;;;5093583;28;20080;-87
2022/01/20 00:43:15;;;;;;;10.68;7.28;;;-2.80;99.90;;;;;;5087706;28;20040;-87
2022/01/20 00:45:41;;;;;;;6.22;4.70;;;-2.80;99.90;;;;;;5092576;28;20520;-88
2022/01/20 00:48:07;;;;;;;8.18;5.53;;;-2.80;99.90;;;;;;5098000;28;20028;-90
2022/01/20 00:50:35;;;;;;;14.35;6.95;;;-2.80;99.90;;;;;;5097597;28;20050;-88
2022/01/20 00:53:01;;;;;;;8.73;5.43;;;-2.80;99.90;;;;;;5098303;28;20056;-90
2022/01/20 00:55:27;;;;;;;9.23;5.90;;;-2.80;99.90;;;;;;5097810;28;20020;-91
2022/01/20 00:57:53;;;;;;;8.05;5.38;;;-2.80;99.90;;;;;;5098159;28;20028;-90
2022/01/20 01:00:19;;;;;;;8.75;5.53;;;-2.80;99.90;;;;;;5096949;28;20103;-88
2022/01/20 01:02:46;;;;;;;6.55;5.10;;;-2.80;99.90;;;;;;5099218;28;20024;-89
2022/01/20 01:05:18;;;;;;;8.40;5.85;;;-2.80;99.90;;;;;;5104409;28;20020;-90
2022/01/20 01:10:10;;;;;;;8.88;5.18;;;-2.80;99.90;;;;;;5103175;28;20050;-91
2022/01/20 01:15:17;;;;;;;10.93;6.60;;;-2.80;99.90;;;;;;5138344;28;20091;-87
2022/01/20 01:20:29;;;;;;;11.57;6.25;;;-2.90;99.90;;;;;;5121720;28;20400;-84
2022/01/20 01:22:55;;;;;;;8.57;4.50;;;-2.90;99.90;;;;;;5122097;28;20040;-85
2022/01/20 01:25:22;;;;;;;11.05;5.93;;;-2.80;99.90;;;;;;5127194;28;20027;-85
2022/01/20 01:27:48;;;;;;;9.88;6.05;;;-2.80;99.90;;;;;;5118253;28;20038;-84
2022/01/20 01:35:12;;;;;;;9.68;6.88;;;-2.80;99.90;;;;;;5119466;28;20046;-84
2022/01/20 01:40:09;;;;;;;9.75;5.82;;;-2.80;99.90;;;;;;5127286;28;20114;-87
2022/01/20 01:42:45;;;;;;;9.13;6.55;;;-2.80;99.90;;;;;;5124886;28;20042;-86
2022/01/20 01:45:19;;;;;;;11.77;5.97;;;-2.80;99.90;;;;;;5136873;28;20010;-84
2022/01/20 01:47:46;;;;;;;7.80;5.45;;;-2.70;99.90;;;;;;5138802;28;20015;-86
2022/01/20 01:50:13;;;;;;;8.82;6.45;;;-2.80;99.90;;;;;;5111635;28;20033;-86
2022/01/20 01:52:39;;;;;;;9.75;6.47;;;-2.80;99.90;;;;;;5100201;28;20039;-87
2022/01/20 01:55:06;;;;;;;10.82;6.32;;;-2.80;99.90;;;;;;5100889;28;20054;-87
2022/01/20 01:57:33;;;;;;;12.13;6.22;;;-2.80;99.90;;;;;;5077148;28;20116;-86
2022/01/20 01:59:58;;;;;;;9.70;6.55;;;-2.80;99.90;;;;;;5095302;28;20028;-86
2022/01/20 02:02:24;;;;;;;11.20;6.82;;;-2.80;99.90;;;;;;5102280;28;20065;-86
2022/01/20 02:04:51;;;;;;;9.73;5.70;;;-2.80;99.90;;;;;;5115657;28;20059;-87
2022/01/20 02:18:24;;;;;;;12.65;5.97;;;-2.70;99.90;;;;;;5134750;28;20051;-85
2022/01/20 02:20:46;;;;;;;11.00;6.50;;;-2.70;99.90;;;;;;5128644;28;20096;-87
2022/01/20 02:23:11;;;;;;;8.95;5.60;;;-2.70;99.90;;;;;;5116711;28;20405;-87
2022/01/20 02:25:37;;;;;;;8.43;5.60;;;-2.70;99.90;;;;;;5116429;28;20016;-87
2022/01/20 02:28:08;;;;;;;9.90;5.10;;;-2.70;99.90;;;;;;5116380;28;20034;-86
2022/01/20 02:30:36;;;;;;;11.68;7.72;;;-2.70;99.90;;;;;;5113171;28;20030;-86
2022/01/20 02:33:07;;;;;;;9.23;6.03;;;-2.70;99.90;;;;;;5076727;28;20032;-86
2022/01/20 02:35:39;;;;;;;11.10;6.40;;;-2.70;99.90;;;;;;5076965;28;20488;-85
2022/01/20 02:38:17;;;;;;;11.80;6.60;;;-2.80;99.90;;;;;;5096660;28;20027;-86
2022/01/20 02:45:57;;;;;;;14.90;8.05;;;-2.80;99.90;;;;;;5110318;28;20054;-87
2022/01/20 02:48:24;;;;;;;9.98;6.03;;;-2.80;99.90;;;;;;5101594;28;20035;-87
2022/01/20 02:50:51;;;;;;;12.30;7.32;;;-2.70;99.90;;;;;;5126453;28;20035;-86
2022/01/20 02:53:16;;;;;;;10.63;5.72;;;-2.70;99.90;;;;;;5134304;28;20078;-88
2022/01/20 02:55:42;;;;;;;11.07;7.07;;;-2.70;99.90;;;;;;5098633;28;20020;-86
2022/01/20 02:58:08;;;;;;;9.57;6.45;;;-2.60;99.90;;;;;;5125667;28;20035;-87
2022/01/20 03:00:37;;;;;;;9.65;6.55;;;-2.60;99.90;;;;;;5117219;28;20035;-90
2022/01/20 03:03:03;;;;;;;12.32;7.82;;;-2.60;99.90;;;;;;5127817;28;20020;-87
2022/01/20 03:05:33;;;;;;;11.75;6.68;;;-2.60;99.90;;;;;;5116299;28;20426;-86
2022/01/20 03:08:01;;;;;;;12.43;7.03;;;-2.60;99.90;;;;;;5115252;28;20533;-86
2022/01/20 03:10:28;;;;;;;11.48;7.43;;;-2.60;99.90;;;;;;5116121;28;20088;-86
2022/01/20 03:12:53;;;;;;;10.80;6.00;;;-2.50;99.90;;;;;;5114447;28;20043;-88
2022/01/20 03:15:19;;;;;;;9.52;5.18;;;-2.60;99.90;;;;;;5114271;28;20031;-87
2022/01/20 03:17:45;;;;;;;12.13;7.03;;;-2.50;99.90;;;;;;5114687;28;20027;-86
2022/01/20 03:20:11;;;;;;;10.55;5.95;;;-2.60;99.90;;;;;;5116836;28;20055;-87
2022/01/20 03:22:38;;;;;;;10.05;6.20;;;-2.60;99.90;;;;;;5128162;28;20081;-87
2022/01/20 03:25:05;;;;;;;13.48;9.82;;;-2.60;99.90;;;;;;5120994;28;20023;-86
2022/01/20 03:27:31;;;;;;;14.20;7.10;;;-2.60;99.90;;;;;;5117798;28;20109;-86
2022/01/20 03:29:57;;;;;;;15.48;8.40;;;-2.60;99.90;;;;;;5118057;28;20024;-88
2022/01/20 03:32:23;;;;;;;13.07;6.93;;;-2.60;99.90;;;;;;5117627;28;20039;-87
2022/01/20 03:34:49;;;;;;;14.02;8.90;;;-2.60;99.90;;;;;;5119066;28;20031;-88
2022/01/20 03:37:15;;;;;;;14.02;7.55;;;-2.60;99.90;;;;;;5121528;28;20392;-89
2022/01/20 03:39:41;;;;;;;12.80;7.90;;;-2.60;99.90;;;;;;5120630;28;20114;-88
2022/01/20 03:42:07;;;;;;;11.63;7.63;;;-2.60;99.90;;;;;;5120936;28;20104;-89
2022/01/20 03:44:33;;;;;;;17.65;10.18;;;-2.60;99.90;;;;;;5128109;28;20026;-87
2022/01/20 03:47:03;;;;;;;16.30;7.75;;;-2.60;99.90;;;;;;5137012;27;20036;-87
2022/01/20 03:52:01;;;;;;;9.73;6.30;;;-2.50;99.90;;;;;;5138451;28;20020;-86
2022/01/20 03:54:26;;;;;;;13.35;8.50;;;-2.50;99.90;;;;;;5140499;28;20143;-81
2022/01/20 03:56:52;;;;;;;10.90;8.73;;;-2.50;99.90;;;;;;5141409;28;20022;-86
2022/01/20 03:59:18;;;;;;;15.02;7.75;;;-2.50;99.90;;;;;;5136203;28;20039;-86
2022/01/20 04:01:45;;;;;;;13.18;7.70;;;-2.50;99.90;;;;;;5129891;28;20116;-87
2022/01/20 04:04:12;;;;;;;12.00;7.40;;;-2.50;99.90;;;;;;5119528;28;20038;-87
2022/01/20 04:06:37;;;;;;;13.02;8.45;;;-2.50;99.90;;;;;;5140998;28;20067;-84
2022/01/20 04:09:04;;;;;;;11.55;7.85;;;-2.50;99.90;;;;;;5136664;28;20040;-87
2022/01/20 04:11:30;;;;;;;13.50;8.57;;;-2.50;99.90;;;;;;5136124;28;20027;-86
2022/01/20 04:14:03;;;;;;;13.45;7.85;;;-2.50;99.90;;;;;;5135968;28;20043;-89
2022/01/20 04:16:35;;;;;;;11.68;6.90;;;-2.50;99.90;;;;;;5117906;28;20022;-88
2022/01/20 04:19:07;;;;;;;10.07;6.13;;;-2.50;99.90;;;;;;5120490;28;20031;-87
2022/01/20 04:21:33;;;;;;;11.02;6.97;;;-2.50;99.90;;;;;;5127133;28;20024;-85
2022/01/20 04:24:00;;;;;;;9.57;6.05;;;-2.50;99.90;;;;;;5123046;28;20024;-85
2022/01/20 04:26:28;;;;;;;15.35;10.77;;;-2.40;99.90;;;;;;5117593;28;20032;-86
2022/01/20 04:28:56;;;;;;;11.40;7.25;;;-2.50;99.90;;;;;;5102359;28;20026;-86
2022/01/20 04:31:26;;;;;;;9.00;6.57;;;-2.50;99.90;;;;;;5121431;28;20026;-84
2022/01/20 04:33:52;;;;;;;15.52;9.25;;;-2.50;99.90;;;;;;5126330;28;20039;-88
2022/01/20 04:36:18;;;;;;;12.75;8.35;;;-2.60;99.90;;;;;;5114195;28;20040;-90
2022/01/20 04:38:46;;;;;;;11.27;8.15;;;-2.50;99.90;;;;;;5105061;28;20015;-90
2022/01/20 04:41:11;;;;;;;;;;;-2.50;99.90;;;;;;5119640;28;20032;-88
2022/01/20 04:43:38;;;;;;;12.23;7.65;;;-2.50;99.90;;;;;;5137524;28;19895;-87
2022/01/20 04:46:26;;;;;;;8.15;5.82;;;-2.50;99.90;;;;;;5123002;28;20027;-91
2022/01/20 04:57:07;;;;;;;15.20;8.88;;;-2.50;99.90;;;;;;5132296;28;20047;-92
2022/01/20 04:59:51;;;;;;;15.25;8.60;;;-2.50;99.90;;;;;;5110513;28;20043;-94
2022/01/20 05:02:17;;;;;;;11.88;6.65;;;-2.50;99.90;;;;;;5130615;28;20114;-87
2022/01/20 05:04:44;;;;;;;15.00;9.05;;;-2.50;99.90;;;;;;5127643;28;20022;-87
2022/01/20 05:07:17;;;;;;;16.33;9.30;;;-2.50;99.90;;;;;;5117278;28;20119;-88
2022/01/20 05:09:43;;;;;;;17.35;6.65;;;-2.50;99.90;;;;;;5117572;28;20267;-88
2022/01/20 05:12:13;;;;;;;14.88;8.07;;;-2.50;99.90;;;;;;5120071;28;20031;-86
2022/01/20 05:14:39;;;;;;;10.50;6.63;;;-2.50;99.90;;;;;;5120848;28;20051;-87
2022/01/20 05:17:05;;;;;;;15.30;7.45;;;-2.50;99.90;;;;;;5116176;28;20020;-87
2022/01/20 05:19:32;;;;;;;12.30;7.47;;;-2.50;99.90;;;;;;5120533;28;20055;-87
2022/01/20 05:21:59;;;;;;;13.02;7.50;;;-2.50;99.90;;;;;;5111217;28;20036;-86
2022/01/20 05:24:25;;;;;;;13.07;7.05;;;-2.40;99.90;;;;;;5107356;28;20051;-88
2022/01/20 05:26:54;;;;;;;18.13;8.98;;;-2.40;99.90;;;;;;5096662;28;20555;-88
2022/01/20 05:29:21;;;;;;;10.40;6.65;;;-2.40;99.90;;;;;;5107958;28;20084;-86
2022/01/20 05:31:47;;;;;;;14.20;7.32;;;-2.40;99.90;;;;;;5109863;28;20087;-88
2022/01/20 05:34:13;;;;;;;16.73;8.02;;;-2.40;99.90;;;;;;5110090;28;20532;-86
2022/01/20 05:36:39;;;;;;;11.63;7.18;;;-2.40;99.90;;;;;;5098217;28;20044;-88
2022/01/20 05:39:05;;;;;;;12.27;8.27;;;-2.40;99.90;;;;;;5062593;28;20048;-89
2022/01/20 05:41:33;;;;;;;19.27;7.70;;;-2.40;99.90;;;;;;5049331;28;20063;-88
2022/01/20 05:43:58;;;;;;;12.88;8.07;;;-2.40;99.90;;;;;;5077790;28;20524;-87
2022/01/20 05:46:28;;;;;;;14.10;8.07;;;-2.30;99.90;;;;;;5067393;28;20120;-84
2022/01/20 05:48:58;;;;;;;14.38;8.48;;;-2.30;99.90;;;;;;5055909;28;20147;-86
2022/01/20 05:51:24;;;;;;;12.13;7.30;;;-2.30;99.90;;;;;;5066321;28;20017;-86
2022/01/20 05:53:51;;;;;;;14.55;7.72;;;-2.20;99.90;;;;;;5095016;28;20055;-90
2022/01/20 05:56:16;;;;;;;13.00;7.65;;;-2.20;99.90;;;;;;5103726;28;20031;-86
2022/01/20 05:58:42;;;;;;;12.80;7.50;;;-2.30;99.90;;;;;;5079853;28;20066;-88
2022/01/20 06:01:08;;;;;;;15.70;9.07;;;-2.30;99.90;;;;;;5104230;28;20142;-87
2022/01/20 06:03:37;;;;;;;16.33;8.73;;;-2.30;99.90;;;;;;5117075;28;20016;-83
2022/01/20 06:06:05;;;;;;;11.10;7.18;;;-2.30;99.90;;;;;;5099729;28;20089;-85
2022/01/20 06:08:32;;;;;;;12.30;7.35;;;-2.20;99.90;;;;;;5109049;28;20054;-87
2022/01/20 06:10:58;;;;;;;18.67;8.82;;;-2.20;99.90;;;;;;5102279;28;20013;-87
2022/01/20 06:13:25;;;;;;;16.08;7.50;;;-2.20;99.90;;;;;;5101472;28;20382;-86
2022/01/20 06:15:51;;;;;;;11.80;7.88;;;-2.20;99.90;;;;;;5087948;28;20042;-87
2022/01/20 06:18:17;;;;;;;18.23;8.60;;;-2.20;99.90;;;;;;5086768;28;20044;-86
2022/01/20 06:20:44;;;;;;;18.98;10.10;;;-2.20;99.90;;;;;;5067743;28;20027;-86
2022/01/20 06:23:10;;;;;;;17.85;8.52;;;-2.20;99.90;;;;;;5095332;28;20043;-87
2022/01/20 06:25:36;;;;;;;18.83;10.13;;;-2.20;99.90;;;;;;5097017;28;20028;-86
2022/01/20 06:28:03;;;;;;;14.10;9.00;;;-2.20;99.90;;;;;;5095553;28;20123;-88
2022/01/20 06:30:32;;;;;;;18.23;10.55;;;-2.20;99.90;;;;;;5096244;28;20024;-88
2022/01/20 06:32:59;;;;;;;12.02;6.93;;;-2.20;99.90;;;;;;5059641;28;20048;-90
2022/01/20 06:35:25;;;;;;;15.88;9.13;;;-2.20;99.90;;;;;;5058699;28;20029;-89
2022/01/20 06:37:52;;;;;;;12.45;7.80;;;-2.20;99.90;;;;;;5061901;28;20049;-85
2022/01/20 06:40:21;;;;;;;14.82;7.13;;;-2.20;99.90;;;;;;5065642;28;20037;-87
2022/01/20 06:42:47;;;;;;;19.25;9.52;;;-2.20;99.90;;;;;;5065775;28;20041;-87
2022/01/20 06:45:15;;;;;;;15.68;8.65;;;-2.20;99.90;;;;;;5063891;28;20029;-87
2022/01/20 06:47:41;;;;;;;19.13;10.35;;;-2.20;99.90;;;;;;5037070;28;20112;-90
2022/01/20 06:50:31;;;;;;;12.98;8.38;;;-2.20;99.90;;;;;;5070046;28;20013;-89
2022/01/20 06:53:18;;;;;;;15.98;10.27;;;-2.20;99.90;;;;;;5047945;28;20156;-87
2022/01/20 06:55:45;;;;;;;16.13;11.95;;;-2.20;99.90;;;;;;5052582;28;20201;-87
2022/01/20 06:58:11;;;;;;;18.73;9.43;;;-2.20;99.90;;;;;;5051081;28;20100;-84
2022/01/20 07:00:40;;;;;;;17.75;10.35;;;-2.20;99.90;;;;;;5073147;28;20028;-91
2022/01/20 07:03:09;;;;;;;11.77;6.80;;;-2.10;99.90;;;;;;5089999;28;20536;-89
2022/01/20 07:05:35;;;;;;;14.55;9.05;;;-2.10;99.90;;;;;;5065922;28;20086;-89
2022/01/20 07:08:04;;;;;;;15.15;9.73;;;-2.10;99.90;;;;;;5057697;28;20029;-89
2022/01/20 07:10:31;;;;;;;17.20;10.57;;;-2.10;99.90;;;;;;5060119;28;20017;-91
2022/01/20 07:12:57;;;;;;;21.55;11.48;;;-2.00;99.90;;;;;;5003745;28;20065;-89
2022/01/20 07:15:26;;;;;;;21.67;10.85;;;-2.10;99.90;;;;;;5031080;28;20062;-94
2022/01/20 07:17:51;;;;;;;14.48;10.00;;;-2.00;99.90;;;;;;5028109;28;20038;-92
2022/01/20 07:20:18;;;;;;;21.00;12.32;;;-2.10;99.90;;;;;;5015927;28;20057;-92
2022/01/20 07:22:44;;;;;;;17.88;10.45;;;-2.00;99.90;;;;;;5032596;28;20053;-92
2022/01/20 07:25:17;;;;;;;19.98;12.18;;;-2.00;99.90;;;;;;5055905;28;20092;-91
2022/01/20 07:28:09;;;;;;;20.83;11.02;;;-2.00;99.90;;;;;;5072742;28;20127;-92
2022/01/20 07:30:40;;;;;;;18.15;9.95;;;-2.00;99.90;;;;;;5066509;28;20025;-90
2022/01/20 07:33:15;;;;;;;17.30;10.25;;;-2.00;99.90;;;;;;5070089;28;20049;-89
2022/01/20 07:35:48;;;;;;;19.85;11.00;;;-2.00;99.90;;;;;;5071422;28;20042;-91
2022/01/20 07:38:27;;;;;;;15.90;11.20;;;-1.90;99.90;;;;;;5059960;28;20024;-88
2022/01/20 07:40:56;;;;;;;25.10;11.43;;;-1.90;99.90;;;;;;5080285;28;20117;-79
2022/01/20 07:43:23;;;;;;;19.10;10.70;;;-1.90;99.90;;;;;;5081283;28;20056;-87
2022/01/20 07:45:56;;;;;;;19.25;11.18;;;-1.90;99.90;;;;;;5105654;28;20016;-89
2022/01/20 07:48:22;;;;;;;26.67;13.82;;;-1.90;99.90;;;;;;5109391;28;20020;-89
2022/01/20 07:50:51;;;;;;;16.23;8.20;;;-1.90;99.90;;;;;;5128966;28;20023;-90
2022/01/20 07:53:17;;;;;;;19.55;12.20;;;-1.90;99.90;;;;;;5132523;28;20034;-92
2022/01/20 07:55:43;;;;;;;13.98;7.20;;;-1.90;99.90;;;;;;5107487;28;20055;-86
2022/01/20 07:58:09;;;;;;;17.15;10.85;;;-2.00;99.90;;;;;;5126556;28;20031;-88
2022/01/20 08:00:34;;;;;;;18.80;10.85;;;-2.00;99.90;;;;;;5130599;28;20034;-88
2022/01/20 08:03:05;;;;;;;16.75;9.20;;;-2.10;99.90;;;;;;5119349;28;20028;-86
2022/01/20 08:05:33;;;;;;;19.48;12.25;;;-2.20;99.90;;;;;;5087042;28;20010;-89
2022/01/20 08:08:06;;;;;;;20.70;9.77;;;-2.20;99.90;;;;;;5134046;28;20031;-90
2022/01/20 08:10:34;;;;;;;25.13;13.27;;;-2.20;99.90;;;;;;5125782;28;20054;-88
2022/01/20 08:12:59;;;;;;;21.60;9.90;;;-2.20;99.90;;;;;;5131769;28;20039;-87
2022/01/20 08:15:28;;;;;;;16.15;8.98;;;-2.10;99.90;;;;;;5121807;28;20019;-86
2022/01/20 08:17:54;;;;;;;15.18;9.15;;;-2.10;99.90;;;;;;5121224;28;20024;-88
2022/01/20 08:20:21;;;;;;;15.15;8.50;;;-2.10;99.90;;;;;;5112388;28;20023;-89
2022/01/20 08:22:47;;;;;;;15.07;7.88;;;-2.10;99.90;;;;;;5093277;28;20032;-87
2022/01/20 08:25:17;;;;;;;20.27;11.77;;;-2.20;99.90;;;;;;5091745;28;20092;-90
2022/01/20 08:27:44;;;;;;;20.13;11.77;;;-2.20;99.90;;;;;;5115631;28;20079;-88
2022/01/20 08:30:13;;;;;;;23.55;12.80;;;-2.20;99.90;;;;;;5110038;28;20020;-87
2022/01/20 08:32:41;;;;;;;12.38;6.88;;;-2.20;99.90;;;;;;5107308;28;20039;-88
2022/01/20 08:35:09;;;;;;;18.00;11.75;;;-2.10;99.90;;;;;;5110608;28;20019;-90
2022/01/20 08:37:43;;;;;;;21.00;11.75;;;-2.00;99.90;;;;;;5093719;28;20038;-90
2022/01/20 08:40:12;;;;;;;19.70;12.02;;;-2.00;99.90;;;;;;5107319;28;20381;-90
2022/01/20 08:42:41;;;;;;;19.90;11.35;;;-2.00;99.90;;;;;;5103991;28;20112;-88
2022/01/20 08:45:14;;;;;;;22.27;12.07;;;-1.90;99.90;;;;;;5122146;28;20028;-91
2022/01/20 08:47:42;;;;;;;18.80;11.05;;;-1.90;99.90;;;;;;5088878;28;20092;-88
2022/01/20 08:50:09;;;;;;;15.07;8.00;;;-1.90;99.90;;;;;;5108751;28;20022;-90
2022/01/20 08:52:38;;;;;;;;;;;-1.90;99.90;;;;;;5108055;28;20032;-92
2022/01/20 08:55:08;;;;;;;19.33;9.15;;;-2.00;99.90;;;;;;5085642;28;20510;-90
2022/01/20 08:57:35;;;;;;;21.92;12.98;;;-2.10;99.90;;;;;;5068521;28;20044;-90
2022/01/20 09:00:02;;;;;;;19.20;10.20;;;-2.10;99.90;;;;;;5080922;28;20028;-88
2022/01/20 09:02:30;;;;;;;;;;;-2.10;99.90;;;;;;5062491;28;20037;-87
2022/01/20 09:04:56;;;;;;;17.95;8.77;;;-2.10;99.90;;;;;;5062181;28;19928;-86
2022/01/20 09:07:22;;;;;;;15.02;8.70;;;-2.10;99.90;;;;;;5049024;28;20040;-87
2022/01/20 09:09:49;;;;;;;15.25;7.05;;;-2.20;99.90;;;;;;5045368;28;20021;-87
2022/01/20 09:15:27;;;;;;;18.05;10.80;;;-2.20;99.90;;;;;;5042713;28;20040;-87
2022/01/20 09:15:31;;;;;;;15.35;7.22;;;-2.20;99.90;;;;;;5065234;28;20559;-88
2022/01/20 09:18:08;;;;;;;20.10;11.00;;;-2.20;99.90;;;;;;5067657;28;20156;-91
2022/01/20 09:20:36;;;;;;;19.30;10.32;;;-2.20;99.90;;;;;;5048270;28;20059;-87
2022/01/20 09:23:03;;;;;;;14.88;7.53;;;-2.10;99.90;;;;;;5040213;28;20036;-88
2022/01/20 09:25:28;;;;;;;12.37;7.37;;;-2.10;99.90;;;;;;5063280;28;20047;-88
2022/01/20 09:27:57;;;;;;;14.95;9.88;;;-2.10;99.90;;;;;;5068291;28;20517;-85
2022/01/20 09:30:25;;;;;;;21.45;11.25;;;-2.20;99.90;;;;;;5074667;28;20037;-89
2022/01/20 09:35:34;;;;;;;13.88;8.18;;;-2.10;99.90;;;;;;5071629;28;20070;-92
2022/01/20 09:38:05;;;;;;;11.50;7.35;;;-2.10;99.90;;;;;;5069005;28;20708;-89
2022/01/20 09:40:35;;;;;;;20.48;9.82;;;-2.10;99.90;;;;;;5055571;28;20037;-83
2022/01/20 09:43:05;;;;;;;13.63;6.93;;;-2.20;99.90;;;;;;5068778;28;20060;-88
2022/01/20 09:45:41;;;;;;;14.00;7.28;;;-2.20;99.90;;;;;;5059325;28;20033;-88
2022/01/20 09:48:18;;;;;;;18.27;12.38;;;-2.20;99.90;;;;;;5089535;28;20028;-94
2022/01/20 09:50:44;;;;;;;10.90;7.88;;;-2.20;99.90;;;;;;5096780;28;20028;-89
2022/01/20 09:53:10;;;;;;;12.98;6.57;;;-2.20;99.90;;;;;;5088684;28;20024;-89
2022/01/20 09:55:43;;;;;;;17.08;9.77;;;-2.10;99.90;;;;;;5108701;28;20024;-89
2022/01/20 09:58:17;;;;;;;13.20;6.85;;;-2.20;99.90;;;;;;5100075;28;20032;-87
2022/01/20 10:01:02;;;;;;;19.70;9.88;;;-2.20;99.90;;;;;;5094880;28;20081;-94
2022/01/20 10:03:51;;;;;;;12.00;8.23;;;-2.20;99.90;;;;;;5085599;28;20058;-92
2022/01/20 10:06:20;;;;;;;15.90;9.30;;;-2.20;99.90;;;;;;5120169;28;20047;-93
2022/01/20 10:09:08;;;;;;;14.35;7.60;;;-2.20;99.90;;;;;;5104561;28;20023;-83
2022/01/20 10:12:21;;;;;;;19.92;10.40;;;-2.20;99.90;;;;;;5119005;28;20027;-93
2022/01/20 10:14:56;;;;;;;14.90;7.97;;;-2.20;99.90;;;;;;5102070;28;20071;-92
2022/01/20 10:17:37;;;;;;;15.10;9.57;;;-2.20;99.90;;;;;;5138806;28;20023;-93
2022/01/20 10:20:10;;;;;;;12.82;7.75;;;-2.20;99.90;;;;;;5119201;28;20022;-93
2022/01/20 10:22:41;;;;;;;27.38;12.73;;;-2.20;99.90;;;;;;5136733;28;20012;-90
2022/01/20 10:30:29;;;;;;;17.13;11.27;;;-2.30;99.90;;;;;;5054020;22;20029;-83
2022/01/20 10:33:04;;;;;;;15.40;8.80;;;-2.30;99.90;;;;;;5037128;28;20068;-92
2022/01/20 10:36:22;;;;;;;17.65;10.95;;;-2.20;99.90;;;;;;5012570;28;20021;-92
2022/01/20 10:38:59;;;;;;;11.65;6.97;;;-2.20;99.90;;;;;;5059794;28;20026;-90
2022/01/20 10:41:38;;;;;;;16.38;8.82;;;-2.20;99.90;;;;;;5061382;28;20056;-94
2022/01/20 10:44:11;;;;;;;12.20;7.97;;;-2.10;99.90;;;;;;5061333;28;20009;-95
2022/01/20 10:46:52;;;;;;;17.90;11.50;;;-2.10;99.90;;;;;;5009717;28;20093;-91
2022/01/20 10:49:21;;;;;;;11.15;8.05;;;-2.10;99.90;;;;;;5039853;28;20030;-92
2022/01/20 10:52:03;;;;;;;13.07;8.63;;;-2.10;99.90;;;;;;5002583;28;20018;-92
2022/01/20 10:54:48;;;;;;;16.20;8.18;;;-2.10;99.90;;;;;;5009633;28;20502;-88
2022/01/20 10:57:16;;;;;;;14.48;8.27;;;-2.10;99.90;;;;;;5002986;28;20023;-86
2022/01/20 10:59:54;;;;;;;9.95;6.28;;;-2.10;99.90;;;;;;4998963;28;20500;-88
2022/01/20 11:02:22;;;;;;;16.95;9.15;;;-2.10;99.90;;;;;;4995849;28;20044;-87
2022/01/20 11:04:49;;;;;;;8.82;5.90;;;-2.20;99.90;;;;;;4996175;28;20033;-87
2022/01/20 11:07:15;;;;;;;22.70;10.45;;;-2.10;99.90;;;;;;4996500;28;20105;-90
2022/01/20 11:09:44;;;;;;;11.18;5.72;;;-2.10;99.90;;;;;;4996226;28;20034;-86
2022/01/20 11:12:15;;;;;;;14.32;8.13;;;-2.10;99.90;;;;;;4994697;28;20045;-84
2022/01/20 11:14:44;;;;;;;13.50;8.35;;;-2.10;99.90;;;;;;4995332;28;20044;-86
2022/01/20 11:17:25;;;;;;;7.43;5.85;;;-2.10;99.90;;;;;;5001306;28;20057;-85
2022/01/20 11:19:51;;;;;;;12.80;8.70;;;-2.20;99.90;;;;;;4996021;28;20042;-84
2022/01/20 11:22:20;;;;;;;12.07;7.63;;;-2.20;99.90;;;;;;5022200;28;20041;-89
2022/01/20 11:25:01;;;;;;;17.40;8.73;;;-2.10;99.90;;;;;;5044076;28;20014;-83
2022/01/20 11:27:41;;;;;;;14.45;9.02;;;-2.10;99.90;;;;;;5040237;28;20021;-88
2022/01/20 11:30:29;;;;;;;19.65;9.90;;;-2.10;99.90;;;;;;5041575;28;20080;-88
2022/01/20 11:32:57;;;;;;;;;;;-2.00;99.90;;;;;;5020873;28;20069;-89
2022/01/20 11:35:36;;;;;;;14.68;7.22;;;-2.00;99.90;;;;;;5041517;28;19912;-84
2022/01/20 11:38:08;;;;;;;13.02;8.27;;;-2.00;99.90;;;;;;5019855;28;20033;-92
2022/01/20 11:40:47;;;;;;;18.95;7.07;;;-2.00;99.90;;;;;;4978331;28;20027;-89
2022/01/20 11:43:13;;;;;;;14.68;8.10;;;-2.00;99.90;;;;;;4962280;28;20062;-87
2022/01/20 11:45:50;;;;;;;13.57;8.20;;;-2.10;99.90;;;;;;4987494;28;20022;-86
2022/01/20 11:48:20;;;;;;;15.00;9.35;;;-2.00;99.90;;;;;;4981401;28;20030;-86
2022/01/20 11:50:48;;;;;;;16.80;9.02;;;-2.00;99.90;;;;;;4999159;28;20034;-87
2022/01/20 11:53:19;;;;;;;17.80;9.55;;;-2.00;99.90;;;;;;4979939;28;20491;-87
2022/01/20 11:55:52;;;;;;;12.35;7.68;;;-2.00;99.90;;;;;;4993996;28;20067;-84
2022/01/20 11:58:21;;;;;;;16.42;11.10;;;-2.00;99.90;;;;;;4977251;28;20115;-89
2022/01/20 12:01:05;;;;;;;13.40;8.98;;;-2.10;99.90;;;;;;4985780;28;20121;-90
2022/01/20 12:03:32;;;;;;;17.58;9.52;;;-2.00;99.90;;;;;;4960633;28;20034;-87
2022/01/20 12:06:14;;;;;;;18.92;10.75;;;-2.00;99.90;;;;;;4976341;28;20585;-87
2022/01/20 12:09:01;;;;;;;10.52;6.57;;;-2.00;99.90;;;;;;4977958;28;20034;-84
2022/01/20 12:11:38;;;;;;;17.15;8.90;;;-2.00;99.90;;;;;;4982104;28;20131;-87
2022/01/20 12:14:06;;;;;;;13.70;8.32;;;-2.00;99.90;;;;;;4984019;28;20539;-90
2022/01/20 12:16:34;;;;;;;17.70;10.65;;;-2.00;99.90;;;;;;4989506;28;20058;-87
2022/01/20 12:19:01;;;;;;;14.77;6.85;;;-2.00;99.90;;;;;;4973102;28;20035;-90
2022/01/20 12:21:30;;;;;;;15.68;9.80;;;-2.00;99.90;;;;;;4953674;28;20042;-87
2022/01/20 12:23:57;;;;;;;21.15;11.25;;;-2.00;99.90;;;;;;5001664;28;20037;-85
2022/01/20 12:26:23;;;;;;;19.98;12.35;;;-2.00;99.90;;;;;;5022925;28;20049;-84
2022/01/20 12:29:09;;;;;;;17.98;9.63;;;-2.00;99.90;;;;;;5016602;28;20057;-84
2022/01/20 12:32:12;;;;;;;13.85;8.55;;;-2.00;99.90;;;;;;5009072;28;20113;-85
2022/01/20 12:34:38;;;;;;;15.63;9.90;;;-2.10;99.90;;;;;;5004400;28;20133;-85
2022/01/20 12:37:04;;;;;;;18.77;12.48;;;-2.10;99.90;;;;;;5000010;28;20049;-85
2022/01/20 12:39:32;;;;;;;17.98;10.35;;;-2.10;99.90;;;;;;5000844;28;20032;-82
2022/01/20 12:42:07;;;;;;;12.73;9.13;;;-2.10;99.90;;;;;;5018813;28;20022;-85
2022/01/20 12:45:05;;;;;;;19.80;11.95;;;-2.10;99.90;;;;;;5021403;28;20026;-84
2022/01/20 12:47:32;;;;;;;17.55;11.13;;;-2.10;99.90;;;;;;5039335;28;20033;-87
2022/01/20 12:50:00;;;;;;;15.98;10.68;;;-2.10;99.90;;;;;;5033643;28;20447;-85
2022/01/20 12:52:26;;;;;;;18.02;10.60;;;-2.10;99.90;;;;;;5017337;28;20018;-87
2022/01/20 12:54:52;;;;;;;16.63;10.32;;;-2.10;99.90;;;;;;4999174;28;20065;-85
2022/01/20 12:57:22;;;;;;;20.40;11.02;;;-2.10;99.90;;;;;;5028057;28;20022;-91
2022/01/20 12:59:48;;;;;;;20.10;12.13;;;-2.10;99.90;;;;;;5011141;28;20056;-90
2022/01/20 13:02:35;;;;;;;22.15;11.70;;;-2.10;99.90;;;;;;5008093;28;20053;-94
2022/01/20 13:05:04;;;;;;;20.10;12.40;;;-2.10;99.90;;;;;;5009334;28;20532;-88
2022/01/20 13:07:34;;;;;;;17.92;10.18;;;-2.10;99.90;;;;;;5010842;28;20026;-90
2022/01/20 13:10:08;;;;;;;18.33;7.53;;;-2.10;99.90;;;;;;5012816;28;20102;-83
2022/01/20 13:12:38;;;;;;;23.77;11.80;;;-2.10;99.90;;;;;;5008204;28;20022;-88
2022/01/20 13:15:18;;;;;;;18.02;11.02;;;-2.20;99.90;;;;;;4999396;28;20025;-85
2022/01/20 13:18:01;;;;;;;16.65;10.23;;;-2.20;99.90;;;;;;5000682;28;20030;-86
2022/01/20 13:20:27;;;;;;;13.13;9.30;;;-2.20;99.90;;;;;;5021960;28;20029;-89
2022/01/20 13:25:48;;;;;;;19.95;11.57;;;-2.30;99.90;;;;;;5035008;28;20105;-85
2022/01/20 13:28:17;;;;;;;16.88;8.35;;;-2.30;99.90;;;;;;5001458;28;20103;-87
2022/01/20 13:30:53;;;;;;;14.00;8.75;;;-2.20;99.90;;;;;;5040197;28;20045;-85
2022/01/20 13:33:24;;;;;;;12.68;8.05;;;-2.20;99.90;;;;;;5036733;28;20113;-89
2022/01/20 13:36:01;;;;;;;17.55;10.18;;;-2.30;99.90;;;;;;5037085;28;20034;-89
2022/01/20 13:38:45;;;;;;;12.03;9.23;;;-2.30;99.90;;;;;;5027268;28;20809;-84
2022/01/20 13:41:15;;;;;;;9.05;7.07;;;-2.30;99.90;;;;;;5019992;28;20634;-85
2022/01/20 13:46:33;;;;;;;20.23;8.45;;;-2.30;99.90;;;;;;5035611;28;20071;-86
2022/01/20 13:49:27;;;;;;;20.60;9.90;;;-2.30;99.90;;;;;;5019672;28;20018;-89
2022/01/20 13:52:06;;;;;;;15.40;9.52;;;-2.30;99.90;;;;;;5036069;28;20064;-91
2022/01/20 13:54:42;;;;;;;18.92;9.27;;;-2.30;99.90;;;;;;5016266;28;20040;-87
2022/01/20 13:57:11;;;;;;;18.15;11.68;;;-2.30;99.90;;;;;;5038382;28;20033;-89
2022/01/20 13:59:56;;;;;;;16.50;9.63;;;-2.30;99.90;;;;;;5020539;28;20045;-87
2022/01/20 14:02:23;;;;;;;23.20;12.20;;;-2.30;99.90;;;;;;5036747;28;20101;-88
2022/01/20 14:04:50;;;;;;;19.42;11.90;;;-2.30;99.90;;;;;;5036967;28;20022;-89
2022/01/20 14:07:17;;;;;;;18.23;12.77;;;-2.30;99.90;;;;;;5030631;28;20073;-89
2022/01/20 14:09:44;;;;;;;23.75;13.18;;;-2.20;99.90;;;;;;5027743;28;20152;-89
2022/01/20 14:12:16;;;;;;;20.38;11.90;;;-2.20;99.90;;;;;;5036027;28;20037;-87
2022/01/20 14:14:44;;;;;;;22.88;12.75;;;-2.20;99.90;;;;;;5035045;28;20498;-87
2022/01/20 14:17:21;;;;;;;20.10;10.75;;;-2.20;99.90;;;;;;5012511;28;20116;-90
2022/01/20 14:19:55;;;;;;;17.90;10.73;;;-2.20;99.90;;;;;;5023231;28;20038;-89